Latest Weather Observations for Cerberus

IDV60901

Issued at 2:55 pm EDT Wednesday 26 November 2014 (issued every 10 minutes, with the page automatically refreshed every 10 minutes)

About weather observations | Map of Melbourne area stations | Latest observations for Melbourne area | Other Formats
Station Details ID: 086361 Name: CERBERUS Lat: -38.36 Lon: 145.18 Height: 12.69 m
Data from the previous 72 hours. | See also: Recent months at Cerberus
Date/Time
EDT
Tmp

°C
App
Tmp
°C
Dew
Point
°C
Rel
Hum
%
Delta-T

°C
Wind Press
QNH
hPa
Press
MSL
hPa
Rain
since
9 am
mm
Dir
 
Spd
km/h
Gust
km/h
Spd
kts
Gust
kts
26/02:30pm 15.0 12.7 13.0 88 1.1 SW 17 26 9 14 1022.0 1021.9 0.8
26/02:00pm 14.3 12.2 12.5 89 1.0 SSW 15 26 8 14 1021.9 1021.8 0.8
26/01:30pm 15.0 12.0 12.1 83 1.6 SSW 19 32 10 17 1021.7 1021.6 0.0
26/01:00pm 16.4 14.5 10.5 68 3.1 WSW 11 17 6 9 1021.4 1021.3 0.0
26/12:30pm 16.1 14.1 10.0 67 3.2 WNW 11 19 6 10 1021.4 1021.3 0.0
26/12:00pm 16.4 13.2 9.8 65 3.4 W 17 24 9 13 1021.4 1021.3 0.0
26/11:30am 16.8 14.1 10.4 66 3.4 WSW 15 22 8 12 1021.4 1021.3 0.0
26/11:00am 16.0 14.3 9.9 67 3.2 W 9 19 5 10 1021.2 1021.1 0.0
26/10:30am 15.8 13.2 9.2 65 3.4 WSW 13 20 7 11 1021.2 1021.1 0.0
26/10:00am 15.6 13.8 9.3 66 3.2 WNW 9 19 5 10 1021.3 1021.2 0.0
26/09:30am 15.3 12.4 9.7 69 2.9 WNW 15 22 8 12 1021.2 1021.1 0.0
26/09:00am 14.5 11.8 9.1 70 2.7 WNW 13 20 7 11 1021.1 1021.0 0.4
26/08:30am 13.9 11.6 9.1 73 2.4 WNW 11 15 6 8 1020.9 1020.8 0.4
26/08:00am 13.5 11.7 9.6 77 2.0 WNW 9 13 5 7 1020.7 1020.6 0.4
26/07:30am 12.9 11.8 10.1 83 1.4 NW 6 9 3 5 1020.6 1020.5 0.4
26/07:00am 12.0 10.8 9.4 84 1.3 NW 6 9 3 5 1020.3 1020.2 0.4
26/06:30am 11.0 9.4 8.2 83 1.4 NW 6 7 3 4 1020.2 1020.1 0.4
26/06:00am 11.1 9.6 8.3 83 1.4 WNW 6 7 3 4 1020.0 1019.9 0.4
26/05:30am 10.8 9.0 7.9 82 1.4 NW 7 11 4 6 1019.9 1019.8 0.4
26/05:00am 11.2 9.5 8.2 82 1.5 WNW 7 11 4 6 1019.6 1019.5 0.4
26/04:30am 10.7 8.6 8.1 84 1.3 WNW 9 15 5 8 1019.6 1019.5 0.4
26/04:00am 9.6 7.6 6.9 83 1.3 NW 7 9 4 5 1019.5 1019.4 0.4
26/03:30am 8.9 6.7 6.0 82 1.3 NW 7 9 4 5 1019.6 1019.5 0.4
26/03:00am 9.0 6.9 5.7 80 1.5 NW 6 9 3 5 1019.6 1019.5 0.4
26/02:30am 9.4 7.3 5.8 78 1.6 WNW 6 9 3 5 1019.8 1019.7 0.4
26/02:00am 10.5 8.5 6.3 75 2.0 W 6 9 3 5 1020.0 1019.9 0.4
26/01:30am 9.7 7.5 6.4 80 1.5 NW 7 9 4 5 1020.2 1020.1 0.4
26/01:00am 9.4 7.3 5.8 78 1.6 N 6 7 3 4 1020.6 1020.5 0.4
26/12:30am 9.8 7.8 6.2 78 1.7 N 6 7 3 4 1020.7 1020.6 0.4
26/12:00am 10.2 8.1 5.8 74 2.0 N 6 7 3 4 1020.9 1020.8 0.4
 
Date/Time
EDT
Tmp

°C
App
Tmp
°C
Dew
Point
°C
Rel
Hum
%
Delta-T

°C
Wind Press
QNH
hPa
Press
MSL
hPa
Rain
since
9 am
mm
Dir
 
Spd
km/h
Gust
km/h
Spd
kts
Gust
kts
25/11:30pm 10.9 8.7 6.1 72 2.2 NW 7 9 4 5 1021.1 1021.0 0.4
25/11:00pm 12.2 10.3 6.7 69 2.6 W 6 7 3 4 1021.0 1020.9 0.4
25/10:30pm 12.7 10.0 7.2 69 2.7 WSW 11 19 6 10 1021.1 1021.0 0.4
25/10:00pm 13.0 9.2 7.5 69 2.7 WSW 17 30 9 16 1020.9 1020.8 0.4
25/09:30pm 13.4 9.0 7.6 68 2.8 WSW 20 30 11 16 1020.8 1020.7 0.4
25/09:00pm 13.7 9.0 7.9 68 2.9 WSW 22 33 12 18 1020.5 1020.4 0.4
25/08:30pm 13.8 9.7 7.8 67 3.0 WSW 19 26 10 14 1020.3 1020.2 0.4
25/08:00pm 14.3 9.6 7.8 65 3.2 SW 22 32 12 17 1020.0 1019.9 0.4
25/07:30pm 14.9 9.9 8.2 64 3.4 SW 24 37 13 20 1019.9 1019.8 0.4
25/07:00pm 15.3 10.6 9.4 68 3.0 SW 24 37 13 20 1019.5 1019.4 0.4
25/06:30pm 16.1 11.7 9.1 63 3.6 SW 22 37 12 20 1019.0 1018.9 0.4
25/06:00pm 15.8 11.5 9.2 65 3.4 SW 22 33 12 18 1018.8 1018.7 0.4
25/05:30pm 16.3 12.3 10.4 68 3.1 SSW 22 35 12 19 1018.8 1018.7 0.4
25/05:00pm 16.8 12.6 9.7 63 3.7 SW 22 35 12 19 1018.8 1018.7 0.4
25/04:30pm 16.8 12.7 10.2 65 3.5 SSW 22 33 12 18 1018.7 1018.6 0.4
25/04:00pm 17.0 13.4 9.9 63 3.7 SSW 19 32 10 17 1018.7 1018.6 0.4
25/03:30pm 15.7 11.1 9.6 67 3.2 SSW 24 35 13 19 1018.8 1018.7 0.4
25/03:00pm 17.2 13.3 9.6 61 4.0 WSW 20 30 11 16 1018.6 1018.5 0.4
25/02:30pm 16.7 12.8 9.6 63 3.7 SSW 20 28 11 15 1018.4 1018.3 0.4
25/02:00pm 17.2 13.2 8.9 58 4.3 SW 20 32 11 17 1018.5 1018.4 0.4
25/01:30pm 16.4 13.7 10.3 67 3.2 SW 15 24 8 13 1018.5 1018.4 0.4
25/01:00pm 16.2 12.5 9.6 65 3.4 W 19 28 10 15 1018.6 1018.5 0.4
25/12:30pm 16.2 12.0 8.4 60 4.0 W 20 32 11 17 1018.6 1018.5 0.4
25/12:00pm 15.5 12.3 10.1 70 2.8 W 17 28 9 15 1018.5 1018.4 0.4
25/11:30am 14.8 12.3 11.2 79 1.9 W 15 24 8 13 1018.6 1018.5 0.4
25/11:00am 15.4 13.4 11.6 78 2.0 WNW 13 19 7 10 1018.5 1018.4 0.0
25/10:30am 13.5 9.6 9.4 76 2.1 W 20 32 11 17 1018.4 1018.3 0.0
25/10:00am 13.6 10.7 9.8 78 1.9 W 15 26 8 14 1018.2 1018.1 0.0
25/09:30am 14.0 9.6 9.0 72 2.5 WNW 22 32 12 17 1017.8 1017.7 0.0
25/09:00am 14.2 10.4 9.8 75 2.3 WNW 20 30 11 16 1017.3 1017.2 17.8
25/08:30am 14.5 11.3 9.9 74 2.4 WNW 17 24 9 13 1016.8 1016.7 17.8
25/08:00am 13.0 9.2 8.9 76 2.1 WNW 19 28 10 15 1016.4 1016.3 17.8
25/07:30am 12.8 9.5 9.4 80 1.7 WNW 17 26 9 14 1015.9 1015.8 17.8
25/07:00am 12.6 8.8 9.2 80 1.7 WNW 19 28 10 15 1015.5 1015.4 17.8
25/06:30am 11.9 7.8 8.7 81 1.6 WNW 20 30 11 16 1015.1 1015.0 17.8
25/06:00am 11.5 7.3 8.4 81 1.5 WNW 20 32 11 17 1014.5 1014.4 17.8
25/05:30am 11.5 8.2 8.2 80 1.6 WNW 15 30 8 16 1014.4 1014.3 17.8
25/05:00am 11.6 7.4 8.1 79 1.7 WNW 20 30 11 16 1013.9 1013.8 17.8
25/04:30am 11.6 7.5 7.9 78 1.8 WNW 19 32 10 17 1013.7 1013.6 17.8
25/04:00am 11.7 7.4 7.8 77 1.9 WNW 20 32 11 17 1013.4 1013.4 17.8
25/03:30am 11.9 7.7 7.6 75 2.1 WNW 19 28 10 15 1013.3 1013.3 17.8
25/03:00am 12.0 7.9 7.7 75 2.1 W 19 30 10 16 1013.4 1013.4 17.8
25/02:30am 12.0 9.0 7.9 76 2.0 WNW 13 20 7 11 1013.6 1013.5 17.8
25/02:00am 12.2 9.1 7.3 72 2.4 WNW 13 22 7 12 1013.2 1013.2 17.8
25/01:30am 12.2 9.4 6.9 70 2.5 WNW 11 17 6 9 1013.2 1013.2 17.8
25/01:00am 12.3 9.2 7.2 71 2.5 WNW 13 19 7 10 1013.2 1013.2 17.8
25/12:30am 12.0 9.7 7.3 73 2.3 W 9 15 5 8 1013.2 1013.2 17.8
25/12:00am 12.1 10.4 8.4 78 1.8 W 7 19 4 10 1013.1 1013.1 17.8
 
Date/Time
EDT
Tmp

°C
App
Tmp
°C
Dew
Point
°C
Rel
Hum
%
Delta-T

°C
Wind Press
QNH
hPa
Press
MSL
hPa
Rain
since
9 am
mm
Dir
 
Spd
km/h
Gust
km/h
Spd
kts
Gust
kts
24/11:30pm 12.7 10.8 9.0 78 1.9 WSW 9 22 5 12 1013.0 1013.0 17.8
24/11:00pm 12.7 10.8 9.2 79 1.8 W 9 13 5 7 1012.7 1012.7 17.8
24/10:30pm 13.0 11.2 9.4 79 1.8 W 9 15 5 8 1012.8 1012.8 17.8
24/10:00pm 13.4 11.4 10.0 80 1.8 W 11 19 6 10 1012.5 1012.5 17.8
24/09:30pm 13.4 11.8 10.2 81 1.7 W 9 15 5 8 1011.9 1011.9 17.8
24/09:00pm 13.8 12.3 10.4 80 1.8 W 9 15 5 8 1011.6 1011.6 17.8
24/08:30pm 14.0 11.3 10.2 78 2.0 WSW 15 22 8 12 1011.2 1011.2 17.8
24/08:00pm 14.1 11.1 10.5 79 1.9 WSW 17 28 9 15 1010.8 1010.8 17.8
24/07:30pm 14.2 10.9 10.8 80 1.8 WSW 19 35 10 19 1010.1 1010.1 17.8
24/07:00pm 14.5 11.0 12.2 86 1.2 SW 22 37 12 20 1009.3 1009.3 17.8
24/06:30pm 15.2 11.4 12.3 83 1.6 SW 24 41 13 22 1008.5 1008.5 17.8
24/06:00pm 16.2 12.5 12.7 80 1.9 SW 24 44 13 24 1007.6 1007.6 17.8
24/05:30pm 16.3 12.0 13.2 82 1.7 SW 28 43 15 23 1006.9 1006.9 17.8
24/05:00pm 16.6 14.1 14.1 85 1.4 SW 20 32 11 17 1006.6 1006.6 17.8
24/04:30pm 16.8 15.6 15.0 89 1.0 WSW 15 22 8 12 1006.2 1006.2 17.8
24/04:00pm 17.1 16.1 15.6 91 0.9 W 15 20 8 11 1006.2 1006.2 17.8
24/03:30pm 17.4 17.7 15.9 91 0.9 W 9 17 5 9 1006.1 1006.1 17.0
24/03:00pm 17.2 18.3 15.7 91 0.9 W 4 6 2 3 1005.8 1005.8 15.4
24/02:30pm 17.0 18.1 15.5 91 0.9 W 4 6 2 3 1006.4 1006.4 12.8
24/02:00pm 16.9 17.5 15.4 91 0.9 N 6 11 3 6 1007.2 1007.2 9.2
24/01:30pm 16.9 17.3 15.4 91 0.9 NNE 7 13 4 7 1006.5 1006.5 9.0
24/01:00pm 17.0 17.5 15.5 91 0.9 ENE 7 15 4 8 1006.6 1006.6 7.8
24/12:30pm 16.2 16.0 14.7 91 0.9 NE 9 19 5 10 1007.9 1007.9 7.4
24/12:25pm 16.2 16.0 14.7 91 0.9 NE 9 19 5 10 1007.6 1007.6 7.0
24/12:00pm 16.2 16.5 14.6 90 0.9 N 6 11 3 6 1009.7 1009.7 4.4
24/11:30am 16.2 16.5 14.6 90 0.9 NNE 6 11 3 6 1008.8 1008.8 3.2
24/11:00am 16.1 16.1 14.3 89 1.0 NE 7 15 4 8 1009.5 1009.5 1.8
24/10:30am 16.3 17.7 14.5 89 1.0 CALM 0 6 0 3 1009.5 1009.5 1.6
24/10:00am 15.8 16.3 14.0 89 1.0 WSW 4 7 2 4 1009.2 1009.2 1.0
24/09:30am 15.4 14.8 13.4 88 1.1 SW 9 17 5 9 1009.5 1009.5 0.8
24/09:00am 15.3 14.2 13.2 87 1.2 SSW 11 20 6 11 1009.2 1009.2 2.4
24/08:30am 15.1 11.6 12.2 83 1.6 WSW 22 35 12 19 1010.9 1010.9 0.0
24/08:21am 15.8 15.2 12.4 80 1.9 NW 7 15 4 8 1009.5 1009.5 0.0
24/08:00am 16.1 15.0 11.9 76 2.3 NE 9 15 5 8 1007.5 1007.5 0.0
24/07:30am 15.6 14.7 11.4 76 2.3 NE 7 11 4 6 1007.8 1007.8 0.0
24/07:00am 15.2 14.4 11.2 77 2.1 NE 6 9 3 5 1008.0 1008.0 0.0
24/06:30am 15.1 14.5 11.7 80 1.8 NNE 6 11 3 6 1008.1 1008.1 0.0
24/06:00am 14.5 14.0 12.2 86 1.3 NNE 6 11 3 6 1008.4 1008.4 0.0
24/05:30am 12.9 12.5 11.0 88 1.0 S 4 7 2 4 1008.1 1008.1 0.0
24/05:00am 12.4 12.2 10.5 88 1.0 S 2 4 1 2 1008.3 1008.3 0.0
24/04:30am 12.0 11.7 10.1 88 1.0 S 2 4 1 2 1008.9 1008.9 0.0
24/04:00am 12.1 12.2 10.2 88 1.0 CALM 0 0 0 0 1009.1 1009.1 0.0
24/03:30am 11.4 11.2 9.1 86 1.1 CALM 0 0 0 0 1009.7 1009.7 0.0
24/03:00am 11.7 11.6 9.4 86 1.2 CALM 0 4 0 2 1010.1 1010.1 0.0
24/02:30am 11.4 10.4 9.0 85 1.2 S 4 6 2 3 1010.3 1010.3 0.0
24/02:00am 12.2 12.1 9.4 83 1.4 CALM 0 0 0 0 1010.8 1010.8 0.0
24/01:30am 12.7 12.7 9.7 82 1.5 CALM 0 4 0 2 1011.6 1011.6 0.0
24/01:00am 13.5 13.2 10.1 80 1.8 S 2 2 1 1 1012.0 1012.0 0.0
24/12:30am 13.9 13.3 10.5 80 1.8 S 4 4 2 2 1012.3 1012.3 0.0
24/12:00am 14.4 14.2 10.6 78 2.0 S 2 4 1 2 1012.7 1012.7 0.0
 
Date/Time
EDT
Tmp

°C
App
Tmp
°C
Dew
Point
°C
Rel
Hum
%
Delta-T

°C
Wind Press
QNH
hPa
Press
MSL
hPa
Rain
since
9 am
mm
Dir
 
Spd
km/h
Gust
km/h
Spd
kts
Gust
kts
23/11:30pm 14.2 13.5 10.2 77 2.1 S 4 6 2 3 1013.3 1013.3 0.0
23/11:00pm 14.1 13.6 9.5 74 2.4 S 2 4 1 2 1013.4 1013.4 0.0
23/10:30pm 14.6 13.7 9.4 71 2.7 S 4 4 2 2 1014.0 1013.9 0.0
23/10:00pm 14.3 13.7 9.1 71 2.6 S 2 6 1 3 1013.9 1013.8 0.0
23/09:30pm 14.9 13.6 9.3 69 2.9 SSE 6 7 3 4 1013.8 1013.7 0.0
23/09:00pm 15.3 14.0 9.2 67 3.1 SE 6 7 3 4 1013.8 1013.7 0.0
23/08:30pm 15.5 14.6 9.2 66 3.2 SE 4 6 2 3 1013.9 1013.8 0.0
23/08:00pm 16.1 14.6 9.3 64 3.5 SE 7 9 4 5 1013.6 1013.5 0.0
23/07:30pm 16.4 14.7 8.4 59 4.1 SSE 7 11 4 6 1013.6 1013.5 0.0
23/07:00pm 16.6 14.6 8.6 59 4.1 SSE 9 15 5 8 1013.4 1013.4 0.0
23/06:30pm 16.9 14.9 8.8 59 4.2 SSE 9 15 5 8 1013.1 1013.1 0.0
23/06:00pm 17.4 15.3 9.8 61 4.0 SSE 11 17 6 9 1013.0 1013.0 0.0
23/05:30pm 17.8 15.7 9.7 59 4.3 SSE 11 17 6 9 1013.1 1013.1 0.0
23/05:00pm 18.3 15.9 9.9 58 4.5 SSE 13 20 7 11 1012.5 1012.5 0.0
23/04:30pm 18.6 15.5 10.2 58 4.5 S 17 24 9 13 1012.0 1012.0 0.0
23/04:00pm 18.3 14.6 9.6 57 4.6 S 19 24 10 13 1011.9 1011.9 0.0
23/03:30pm 19.4 16.3 10.4 56 4.8 S 17 22 9 12 1011.9 1011.9 0.0
23/03:00pm 19.4 16.3 10.4 56 4.9 S 17 26 9 14 1011.9 1011.9 0.0

Latest Capital City Observations: Canberra | Sydney | Melbourne | Brisbane | Adelaide | Perth | Hobart | Darwin

Other Formats:

Comma delimited format used in spreadsheet applications
http://www.bom.gov.au/fwo/IDV60901/IDV60901.94898.axf

JavaScript Object Notation format (JSON) in row-major order
http://www.bom.gov.au/fwo/IDV60901/IDV60901.94898.json